createdAt,value
2023-09-14T00:03:06.612Z,18.12
2023-09-14T00:08:11.348Z,18.12
2023-09-14T00:13:16.711Z,18.08
2023-09-14T00:18:21.152Z,18.03
2023-09-14T00:23:25.547Z,18.00
2023-09-14T00:28:31.533Z,17.96
2023-09-14T00:33:35.848Z,17.90
2023-09-14T00:38:40.172Z,17.86
2023-09-14T00:43:45.486Z,17.83
2023-09-14T00:48:49.973Z,17.75
2023-09-14T00:53:54.584Z,17.78
2023-09-14T00:59:01.144Z,17.80
2023-09-14T01:04:07.353Z,17.84
2023-09-14T01:09:11.991Z,17.83
2023-09-14T01:14:24.867Z,17.82
2023-09-14T01:19:41.848Z,17.78
2023-09-14T01:24:55.112Z,17.75
2023-09-14T01:30:01.357Z,17.74
2023-09-14T01:35:09.316Z,17.68
2023-09-14T01:40:14.459Z,17.70
2023-09-14T01:45:20.087Z,17.70
2023-09-14T01:50:24.748Z,17.69
2023-09-14T01:55:28.563Z,17.64
2023-09-14T02:00:34.021Z,17.58
2023-09-14T02:05:38.294Z,17.53
2023-09-14T02:10:42.253Z,17.51
2023-09-14T02:15:47.459Z,17.46
2023-09-14T02:20:51.486Z,17.48
2023-09-14T02:25:55.530Z,17.43
2023-09-14T02:31:00.670Z,17.43
2023-09-14T02:36:04.635Z,17.44
2023-09-14T02:41:09.654Z,17.20
2023-09-14T02:46:15.075Z,17.22
2023-09-14T02:51:19.301Z,17.02
2023-09-14T02:56:23.625Z,16.99
2023-09-14T03:01:29.439Z,16.94
2023-09-14T03:06:36.453Z,16.95
2023-09-14T03:11:40.843Z,16.83
2023-09-14T03:16:46.925Z,16.85
2023-09-14T03:21:50.947Z,16.81
2023-09-14T03:26:55.588Z,16.79
2023-09-14T03:32:01.033Z,16.68
2023-09-14T03:37:06.086Z,16.72
2023-09-14T03:42:12.029Z,16.59
2023-09-14T03:47:17.655Z,16.54
2023-09-14T03:52:21.725Z,16.53
2023-09-14T03:57:25.908Z,16.50
2023-09-14T04:02:32.256Z,16.43
2023-09-14T04:07:36.525Z,16.33
2023-09-14T04:12:41.291Z,16.37
2023-09-14T04:17:47.475Z,16.33
2023-09-14T04:22:52.073Z,16.33
2023-09-14T04:27:56.400Z,16.26
2023-09-14T04:33:02.369Z,16.24
2023-09-14T04:38:07.486Z,16.23
2023-09-14T04:43:12.563Z,16.25
2023-09-14T04:48:17.810Z,16.20
2023-09-14T04:53:21.696Z,16.16
2023-09-14T04:58:26.887Z,16.11
2023-09-14T05:03:32.720Z,16.17
2023-09-14T05:08:36.905Z,16.19
2023-09-14T05:13:41.268Z,16.26
2023-09-14T05:18:47.417Z,16.21
2023-09-14T05:23:51.730Z,16.25
2023-09-14T05:28:55.574Z,16.30
2023-09-14T05:34:01.038Z,16.39
2023-09-14T05:39:05.905Z,16.42
2023-09-14T05:44:11.537Z,16.40
2023-09-14T05:49:17.958Z,16.47
2023-09-14T05:54:22.687Z,16.48
2023-09-14T05:59:32.586Z,16.53
2023-09-14T06:04:40.222Z,16.43
2023-09-14T06:09:44.745Z,16.38
2023-09-14T06:14:50.308Z,16.54
2023-09-14T06:19:55.687Z,16.49
2023-09-14T06:24:59.982Z,16.57
2023-09-14T06:30:05.968Z,16.68
2023-09-14T06:35:12.183Z,16.70
2023-09-14T06:40:16.872Z,16.80
2023-09-14T06:45:21.957Z,16.78
2023-09-14T06:50:27.451Z,16.77
2023-09-14T06:55:31.350Z,16.80
2023-09-14T07:00:37.046Z,16.73
2023-09-14T07:05:42.576Z,16.69
2023-09-14T07:10:46.876Z,16.75
2023-09-14T07:15:50.922Z,16.88
2023-09-14T07:20:57.250Z,16.98
2023-09-14T07:26:01.256Z,16.88
2023-09-14T07:31:05.899Z,16.67
2023-09-14T07:36:11.172Z,16.69
2023-09-14T07:41:15.059Z,16.89
2023-09-14T07:46:19.773Z,17.00
2023-09-14T07:51:25.667Z,17.07
2023-09-14T07:56:29.648Z,17.32
2023-09-14T08:01:33.739Z,17.46
2023-09-14T08:06:39.409Z,17.53
2023-09-14T08:11:43.508Z,17.68
2023-09-14T08:16:47.575Z,17.76
2023-09-14T08:21:53.376Z,17.71
2023-09-14T08:26:57.506Z,17.93
2023-09-14T08:32:01.826Z,18.01
2023-09-14T08:37:10.382Z,17.97
2023-09-14T08:42:14.768Z,18.01
2023-09-14T08:47:19.590Z,18.03
2023-09-14T08:52:25.751Z,18.44
2023-09-14T08:57:30.470Z,18.38
2023-09-14T09:02:34.910Z,18.59
2023-09-14T09:07:41.449Z,18.83
2023-09-14T09:12:46.814Z,18.99
2023-09-14T09:17:56.178Z,19.38
2023-09-14T09:23:02.461Z,19.38
2023-09-14T09:28:07.764Z,19.70
2023-09-14T09:33:13.152Z,19.37
2023-09-14T09:38:20.096Z,19.62
2023-09-14T09:43:26.130Z,19.74
2023-09-14T09:48:32.602Z,19.68
2023-09-14T09:53:38.103Z,19.67
2023-09-14T09:58:42.826Z,19.76
2023-09-14T10:03:49.272Z,20.03
2023-09-14T10:09:00.140Z,20.07
2023-09-14T10:14:05.404Z,20.35
2023-09-14T10:19:10.104Z,19.89
2023-09-14T10:24:16.931Z,19.70
2023-09-14T10:29:22.360Z,19.51
2023-09-14T10:34:28.151Z,19.43
2023-09-14T10:39:35.884Z,19.86
2023-09-14T10:44:40.216Z,20.02
2023-09-14T10:49:45.897Z,19.82
2023-09-14T10:54:51.791Z,19.92
2023-09-14T10:59:58.844Z,20.18
2023-09-14T11:05:13.223Z,19.72
2023-09-14T11:10:20.171Z,19.65
2023-09-14T11:15:25.348Z,19.56
2023-09-14T11:20:43.457Z,19.60
2023-09-14T11:26:08.159Z,19.30
2023-09-14T11:31:14.761Z,19.16
2023-09-14T11:36:22.562Z,19.10
2023-09-14T11:41:59.662Z,19.11
2023-09-14T11:47:09.415Z,19.19
2023-09-14T11:52:21.201Z,19.25
2023-09-14T11:57:30.015Z,19.31
2023-09-14T12:02:34.305Z,19.18
2023-09-14T12:07:38.330Z,18.98
2023-09-14T12:12:43.946Z,19.35
2023-09-14T12:17:52.407Z,19.65
2023-09-14T12:22:57.387Z,19.52
2023-09-14T12:28:05.732Z,19.37
2023-09-14T12:33:11.281Z,19.37
2023-09-14T12:38:15.584Z,19.55
2023-09-14T12:43:21.386Z,19.91
2023-09-14T12:48:28.711Z,20.28
2023-09-14T12:53:38.508Z,20.83
2023-09-14T12:58:44.679Z,20.58
2023-09-14T13:03:49.928Z,20.59
2023-09-14T13:08:54.680Z,20.46
2023-09-14T13:14:00.716Z,20.53
2023-09-14T13:19:05.401Z,20.67
2023-09-14T13:24:09.580Z,20.51
2023-09-14T13:29:18.504Z,20.18
2023-09-14T13:34:22.721Z,19.89
2023-09-14T13:39:26.853Z,19.78
2023-09-14T13:44:32.594Z,19.95
2023-09-14T13:49:36.661Z,20.21
2023-09-14T13:54:41.621Z,20.09
2023-09-14T13:59:50.211Z,19.92
2023-09-14T14:04:54.368Z,19.87
2023-09-14T14:09:58.978Z,19.77
2023-09-14T14:15:05.700Z,19.91
2023-09-14T14:20:10.977Z,19.87
2023-09-14T14:25:15.322Z,19.73
2023-09-14T14:30:20.856Z,19.66
2023-09-14T14:35:24.733Z,19.88
2023-09-14T14:40:58.364Z,19.69
2023-09-14T14:45:58.270Z,19.57
2023-09-14T14:51:03.023Z,19.41
2023-09-14T14:56:07.278Z,19.26
2023-09-14T15:01:12.735Z,19.15
2023-09-14T15:06:17.060Z,19.14
2023-09-14T15:11:20.993Z,19.10
2023-09-14T15:16:27.009Z,19.03
2023-09-14T15:21:31.037Z,19.01
2023-09-14T15:26:35.347Z,18.93
2023-09-14T15:31:42.575Z,18.95
2023-09-14T15:36:48.227Z,19.00
2023-09-14T15:41:52.578Z,19.07
2023-09-14T15:46:58.262Z,19.03
2023-09-14T15:52:02.421Z,18.98
2023-09-14T15:57:06.877Z,18.91
2023-09-14T16:02:12.187Z,18.94
2023-09-14T16:07:16.167Z,18.90
2023-09-14T16:12:20.396Z,18.80
2023-09-14T16:17:25.702Z,18.74
2023-09-14T16:22:31.068Z,18.62
2023-09-14T16:27:36.043Z,18.57
2023-09-14T16:32:41.952Z,18.55
2023-09-14T16:37:45.934Z,18.44
2023-09-14T16:42:50.139Z,18.35
2023-09-14T16:47:57.015Z,18.27
2023-09-14T16:53:01.572Z,18.19
2023-09-14T16:58:06.698Z,18.08
2023-09-14T17:03:11.990Z,17.98
2023-09-14T17:08:18.325Z,17.88
2023-09-14T17:13:22.210Z,17.82
2023-09-14T17:18:27.720Z,17.82
2023-09-14T17:23:31.633Z,17.82
2023-09-14T17:28:35.631Z,17.72
2023-09-14T17:33:43.303Z,17.62
2023-09-14T17:38:47.661Z,17.62
2023-09-14T17:43:51.856Z,17.51
2023-09-14T17:48:58.657Z,17.41
2023-09-14T17:54:04.073Z,17.18
2023-09-14T17:59:08.338Z,17.02
2023-09-14T18:04:13.983Z,16.82
2023-09-14T18:09:18.470Z,16.74
2023-09-14T18:14:22.952Z,16.55
2023-09-14T18:19:30.871Z,16.33
2023-09-14T18:24:35.357Z,16.23
2023-09-14T18:29:39.437Z,16.13
2023-09-14T18:34:46.027Z,15.99
2023-09-14T18:39:50.886Z,15.89
2023-09-14T18:44:55.830Z,15.83
2023-09-14T18:50:01.476Z,15.76
2023-09-14T18:55:06.610Z,15.65
2023-09-14T19:00:12.975Z,15.57
2023-09-14T19:05:18.760Z,15.42
2023-09-14T19:10:23.121Z,15.35
2023-09-14T19:15:27.677Z,15.24
2023-09-14T19:20:35.687Z,15.14
2023-09-14T19:25:41.226Z,15.05
2023-09-14T19:30:46.082Z,14.93
2023-09-14T19:35:53.516Z,14.85
2023-09-14T19:40:57.759Z,14.79
2023-09-14T19:46:02.386Z,14.65
2023-09-14T19:51:08.031Z,14.46
2023-09-14T19:56:12.313Z,14.40
2023-09-14T20:01:16.402Z,14.28
2023-09-14T20:06:23.000Z,14.23
2023-09-14T20:11:28.005Z,14.20
2023-09-14T20:16:32.214Z,14.07
2023-09-14T20:21:37.921Z,13.96
2023-09-14T20:26:42.422Z,13.95
2023-09-14T20:31:46.863Z,13.75
2023-09-14T20:36:53.211Z,13.72
2023-09-14T20:41:57.949Z,13.72
2023-09-14T20:47:02.019Z,13.61
2023-09-14T20:52:07.698Z,13.56
2023-09-14T20:57:11.574Z,13.49
2023-09-14T21:02:16.172Z,13.45
2023-09-14T21:07:21.856Z,13.39
2023-09-14T21:12:26.023Z,13.32
2023-09-14T21:17:29.998Z,13.26
2023-09-14T21:22:36.292Z,13.28
2023-09-14T21:27:40.746Z,13.20
2023-09-14T21:32:44.872Z,13.19
2023-09-14T21:37:50.601Z,13.21
2023-09-14T21:42:54.758Z,13.18
2023-09-14T21:47:58.739Z,13.11
2023-09-14T21:53:04.172Z,13.11
2023-09-14T21:58:08.384Z,13.07
2023-09-14T22:03:13.517Z,13.04
2023-09-14T22:08:19.333Z,12.90
2023-09-14T22:13:23.697Z,12.95
2023-09-14T22:18:27.991Z,12.90
2023-09-14T22:23:33.257Z,12.80
2023-09-14T22:28:37.588Z,12.63
2023-09-14T22:33:42.205Z,12.76
2023-09-14T22:38:48.347Z,12.63
2023-09-14T22:43:52.660Z,12.69
2023-09-14T22:48:58.298Z,12.73
2023-09-14T22:54:04.421Z,12.75
2023-09-14T22:59:09.425Z,12.56
2023-09-14T23:04:14.083Z,12.61
2023-09-14T23:09:19.614Z,12.57
2023-09-14T23:14:23.866Z,12.53
2023-09-14T23:19:29.024Z,12.50
2023-09-14T23:24:35.468Z,12.56
2023-09-14T23:29:39.346Z,12.62
2023-09-14T23:34:48.736Z,12.70
2023-09-14T23:39:54.835Z,12.69
2023-09-14T23:44:58.914Z,12.66
2023-09-14T23:50:03.234Z,12.71
2023-09-14T23:55:09.075Z,12.71
